Weather at Mindelheim-Mattsies Airfield

Public forecast

Using degrees Celsius for public forecast. Weather courtesy of forecast.io.

Closest aviation weather report (METAR) to Mindelheim-Mattsies Airfield

Closest report is Memmingen Allgau Airport, 13.5 nm (25.0 km) WSW. Retrieved 2020/09/19 14:20 UTC (25 minutes ago):

EDJA 191420Z VRB01KT CAVOK 20/15 Q1018

Closest aviation forecast (TAF) to Mindelheim-Mattsies Airfield

Forecast is more than 12 hours old.

Closest forecast is Lechfeld Air Base, 14.3 nm (26.4 km) ENE. Retrieved 2016/01/19 15:42 UTC (5 years ago):

TAF ETSL 191727Z 1915/2003 VRB03KT 9999 NSW SCT020 BKN040 TEMPO 1915/2003 VRB03KT 4000 -SN BKN010 BKN030 PROB30 2001/2003 VRB02KT 0800 FZFG VV001 BY ETGL